Lakewood test Advisories (N12)
Lakewood, NJ
Field Elevation: 43
Lat: 40°04.01N  Long: 74°10.40W
CTAF/Unicom Freq: 122.8000
   
     For Weather-by-Phone, call 732-363-6471
Weather Advisories
2024-04-13   07:28 Z
Altimeter 29.56" Hg
Wind 250° @ 10 KT
Gusts 15 KT
Visibility 10 SM
Ceiling BKN043
Temperature 13° C (55° F)
Dewpoint 6° C (43° F)
Relative Humidity 62%
Density Altitude --
Condensation Altitude 3,700 feet
Wind and Runways
Indicated Runway = 24
Headwind = 10 kt
Crosswind = 2 kt
History
 
 
 
More Info
All DigiWx sites map
NOAA Forecast
 
Airport IQ 5010
(4N1) Greenwood Lake, NJ
(N40) Sky Manor, NJ
 
about DigiWx
 
FAA Disclaimer: The data displayed is for advisory purposes only and is not to be used for flight planning or operations. For official data, please call 732-363-6471 to hear the current automated AWOS voice message.
  METAR N12 130728Z AUTO 25010G15KT 10 SM BKN043 13/06 A2956